createdAt,value
2022-07-29T00:00:24.479Z,93786.03
2022-07-29T00:05:26.578Z,93789.88
2022-07-29T00:10:28.724Z,93805.66
2022-07-29T00:15:30.721Z,93796.34
2022-07-29T00:20:32.847Z,93799.41
2022-07-29T00:25:34.925Z,93793.09
2022-07-29T00:30:36.903Z,93792.06
2022-07-29T00:35:44.812Z,93783.06
2022-07-29T00:40:47.492Z,93778.72
2022-07-29T00:45:49.465Z,93777.78
2022-07-29T00:50:52.439Z,93778.38
2022-07-29T00:55:57.644Z,93771.25
2022-07-29T01:00:59.935Z,93775.13
2022-07-29T01:06:01.957Z,93770.69
2022-07-29T01:11:04.312Z,93764.16
2022-07-29T01:16:14.857Z,93767.44
2022-07-29T01:21:35.269Z,93770.22
2022-07-29T01:26:54.222Z,93771.38
2022-07-29T01:32:04.213Z,93766.28
2022-07-29T01:37:27.687Z,93767.50
2022-07-29T01:42:37.280Z,93772.97
2022-07-29T01:48:13.449Z,93772.84
2022-07-29T01:53:19.439Z,93775.88
2022-07-29T01:58:22.052Z,93775.06
2022-07-29T02:03:24.487Z,93776.22
2022-07-29T02:08:27.336Z,93785.16
2022-07-29T02:13:30.155Z,93788.44
2022-07-29T02:18:33.258Z,93803.66
2022-07-29T02:23:45.207Z,93790.91
2022-07-29T02:28:55.647Z,93795.06
2022-07-29T02:33:58.540Z,93792.59
2022-07-29T02:39:01.969Z,93797.06
2022-07-29T02:44:12.477Z,93796.53
2022-07-29T02:49:18.393Z,93803.38
2022-07-29T02:54:42.522Z,93805.63
2022-07-29T02:59:46.868Z,93799.28
2022-07-29T03:04:50.421Z,93802.22
2022-07-29T03:09:53.582Z,93808.59
2022-07-29T03:14:56.998Z,93808.00
2022-07-29T03:19:59.918Z,93809.72
2022-07-29T03:25:09.925Z,93803.50
2022-07-29T03:30:18.434Z,93813.44
2022-07-29T03:35:24.978Z,93811.69
2022-07-29T03:40:37.102Z,93800.38
2022-07-29T03:45:40.536Z,93811.53
2022-07-29T03:50:42.954Z,93811.38
2022-07-29T03:55:48.599Z,93821.09
2022-07-29T04:00:51.356Z,93828.34
2022-07-29T04:06:01.580Z,93837.38
2022-07-29T04:11:07.566Z,93842.59
2022-07-29T04:16:10.300Z,93842.31
2022-07-29T04:21:12.588Z,93845.81
2022-07-29T04:26:15.332Z,93837.19
2022-07-29T04:31:19.351Z,93841.97
2022-07-29T04:36:28.373Z,93850.84
2022-07-29T04:41:33.148Z,93856.13
2022-07-29T04:46:36.675Z,93852.97
2022-07-29T04:51:39.083Z,93855.91
2022-07-29T04:56:41.065Z,93863.91
2022-07-29T05:01:43.174Z,93874.00
2022-07-29T05:06:45.305Z,93866.06
2022-07-29T05:11:47.446Z,93879.19
2022-07-29T05:16:52.177Z,93885.91
2022-07-29T05:21:54.381Z,93894.75
2022-07-29T05:27:02.442Z,93895.72
2022-07-29T05:32:05.094Z,93911.69
2022-07-29T05:37:07.120Z,93917.44
2022-07-29T05:42:10.878Z,93912.00
2022-07-29T05:47:12.801Z,93916.44
2022-07-29T05:52:15.145Z,93915.22
2022-07-29T05:57:22.085Z,93915.56
2022-07-29T06:02:24.144Z,93913.94
2022-07-29T06:07:26.091Z,93919.78
2022-07-29T06:12:28.054Z,93929.16
2022-07-29T06:17:30.043Z,93932.06
2022-07-29T06:22:31.981Z,93945.09
2022-07-29T06:27:33.887Z,93950.13
2022-07-29T06:32:41.356Z,93954.69
2022-07-29T06:37:45.105Z,93958.25
2022-07-29T06:42:48.602Z,93960.63
2022-07-29T06:47:50.989Z,93967.97
2022-07-29T06:52:52.957Z,93969.44
2022-07-29T06:57:54.835Z,93972.94
2022-07-29T07:02:56.931Z,93974.00
2022-07-29T07:07:59.077Z,93976.47
2022-07-29T07:13:01.811Z,93984.53
2022-07-29T07:18:04.784Z,93985.50
2022-07-29T07:23:06.863Z,93993.78
2022-07-29T07:28:08.974Z,94000.66
2022-07-29T07:33:10.944Z,93993.53
2022-07-29T07:38:13.113Z,94005.09
2022-07-29T07:43:15.026Z,93998.72
2022-07-29T07:48:16.998Z,94003.66
2022-07-29T07:53:18.904Z,94006.53
2022-07-29T07:58:20.906Z,94013.00
2022-07-29T08:03:22.895Z,93997.88
2022-07-29T08:08:24.960Z,94010.34
2022-07-29T08:13:31.333Z,94011.19
2022-07-29T08:18:33.569Z,94016.13
2022-07-29T08:23:50.575Z,94006.59
2022-07-29T08:28:55.098Z,94009.91
2022-07-29T08:33:57.518Z,94004.28
2022-07-29T08:39:01.309Z,94005.19
2022-07-29T08:44:03.229Z,93992.16
2022-07-29T08:49:05.235Z,93993.25
2022-07-29T08:54:07.886Z,93994.78
2022-07-29T08:59:10.723Z,93990.78
2022-07-29T09:04:15.484Z,93986.03
2022-07-29T09:09:17.968Z,93988.34
2022-07-29T09:14:20.012Z,93979.22
2022-07-29T09:19:33.101Z,93975.97
2022-07-29T09:24:41.850Z,93977.09
2022-07-29T09:29:43.832Z,93979.38
2022-07-29T09:34:45.723Z,93986.72
2022-07-29T09:39:47.767Z,93977.66
2022-07-29T09:44:51.486Z,93976.69
2022-07-29T09:49:54.731Z,93976.97
2022-07-29T09:55:10.018Z,93975.34
2022-07-29T10:00:18.956Z,93974.13
2022-07-29T10:05:26.135Z,93978.84
2022-07-29T10:10:28.887Z,93977.09
2022-07-29T10:15:33.338Z,93983.56
2022-07-29T10:20:35.978Z,93973.03
2022-07-29T10:25:38.080Z,93972.72
2022-07-29T10:30:41.143Z,93969.28
2022-07-29T10:35:55.013Z,93968.03
2022-07-29T10:41:24.327Z,93976.38
2022-07-29T10:46:27.549Z,93968.19
2022-07-29T10:51:52.149Z,93967.38
2022-07-29T10:56:54.154Z,93965.84
2022-07-29T11:02:10.890Z,93966.53
2022-07-29T11:07:19.529Z,93964.72
2022-07-29T11:12:39.829Z,93957.97
2022-07-29T11:18:01.432Z,93955.88
2022-07-29T11:23:19.562Z,93956.31
2022-07-29T11:28:23.218Z,93962.50
2022-07-29T11:33:54.100Z,93957.19
2022-07-29T11:39:36.981Z,93962.56
2022-07-29T11:45:42.082Z,93960.75
2022-07-29T11:50:44.712Z,93941.06
2022-07-29T11:55:51.398Z,93945.34
2022-07-29T12:00:55.531Z,93947.00
2022-07-29T12:05:58.069Z,93933.44
2022-07-29T12:11:00.972Z,93933.50
2022-07-29T12:16:04.358Z,93938.91
2022-07-29T12:21:06.370Z,93934.06
2022-07-29T12:26:11.053Z,93929.00
2022-07-29T12:31:43.096Z,93941.28
2022-07-29T12:36:45.721Z,93926.59
2022-07-29T12:41:47.720Z,93933.03
2022-07-29T12:47:02.514Z,93927.09
2022-07-29T12:52:25.152Z,93921.84
2022-07-29T12:57:28.372Z,93932.03
2022-07-29T13:02:30.390Z,93917.00
2022-07-29T13:07:55.415Z,93936.81
2022-07-29T13:13:07.390Z,93919.97
2022-07-29T13:18:29.343Z,93922.78
2022-07-29T13:23:31.316Z,93924.75
2022-07-29T13:28:41.061Z,93922.09
2022-07-29T13:33:46.306Z,93920.91
2022-07-29T13:38:48.053Z,93916.91
2022-07-29T13:43:50.184Z,93917.34
2022-07-29T13:48:52.564Z,93903.22
2022-07-29T13:53:54.528Z,93903.47
2022-07-29T13:58:56.695Z,93909.63
2022-07-29T14:04:00.294Z,93913.78
2022-07-29T14:09:02.582Z,93913.34
2022-07-29T14:14:04.580Z,93895.03
2022-07-29T14:19:06.387Z,93896.81
2022-07-29T14:24:16.203Z,93886.44
2022-07-29T14:29:22.809Z,93884.56
2022-07-29T14:34:24.606Z,93891.59
2022-07-29T14:39:26.547Z,93876.47
2022-07-29T14:44:34.109Z,93884.63
2022-07-29T14:49:36.234Z,93884.09
2022-07-29T14:54:38.190Z,93869.16
2022-07-29T14:59:40.401Z,93861.88
2022-07-29T15:04:42.352Z,93855.56
2022-07-29T15:09:49.936Z,93862.75
2022-07-29T15:14:52.172Z,93849.41
2022-07-29T15:19:54.042Z,93844.16
2022-07-29T15:24:55.896Z,93840.00
2022-07-29T15:29:58.167Z,93842.31
2022-07-29T15:35:00.161Z,93844.94
2022-07-29T15:40:02.080Z,93839.91
2022-07-29T15:45:05.284Z,93839.34
2022-07-29T15:50:12.977Z,93836.00
2022-07-29T15:55:16.443Z,93838.13
2022-07-29T16:00:18.562Z,93837.72
2022-07-29T16:05:20.591Z,93837.31
2022-07-29T16:10:22.299Z,93830.91
2022-07-29T16:15:24.378Z,93830.72
2022-07-29T16:20:26.341Z,93827.25
2022-07-29T16:25:50.268Z,93834.28
2022-07-29T16:30:51.441Z,93830.31
2022-07-29T16:35:53.293Z,93830.28
2022-07-29T16:40:55.196Z,93819.97
2022-07-29T16:45:57.179Z,93822.50
2022-07-29T16:50:59.156Z,93816.34
2022-07-29T16:56:01.496Z,93816.94
2022-07-29T17:01:04.057Z,93808.13
2022-07-29T17:06:06.047Z,93814.31
2022-07-29T17:11:07.969Z,93806.09
2022-07-29T17:16:09.960Z,93800.22
2022-07-29T17:21:11.726Z,93813.28
2022-07-29T17:26:13.767Z,93811.41
2022-07-29T17:31:15.625Z,93812.00
2022-07-29T17:36:24.481Z,93821.47
2022-07-29T17:41:26.843Z,93816.97
2022-07-29T17:46:28.959Z,93812.88
2022-07-29T17:51:30.934Z,93821.25
2022-07-29T17:56:32.939Z,93821.78
2022-07-29T18:01:34.814Z,93822.94
2022-07-29T18:06:36.934Z,93822.84
2022-07-29T18:11:38.649Z,93828.59
2022-07-29T18:16:41.315Z,93836.09
2022-07-29T18:21:51.848Z,93834.41
2022-07-29T18:26:57.198Z,93843.31
2022-07-29T18:32:00.036Z,93845.16
2022-07-29T18:37:02.147Z,93842.09
2022-07-29T18:42:04.050Z,93851.31
2022-07-29T18:47:06.102Z,93849.31
2022-07-29T18:52:08.480Z,93853.94
2022-07-29T18:57:55.276Z,93863.34
2022-07-29T19:02:32.527Z,93866.22
2022-07-29T19:07:34.633Z,93879.09
2022-07-29T19:12:36.623Z,93882.56
2022-07-29T19:17:39.037Z,93889.94
2022-07-29T19:22:41.294Z,93885.19
2022-07-29T19:27:42.980Z,93885.44
2022-07-29T19:32:44.799Z,93885.19
2022-07-29T19:37:47.016Z,93890.19
2022-07-29T19:42:51.695Z,93897.78
2022-07-29T19:47:59.063Z,93905.44
2022-07-29T19:53:02.830Z,93913.06
2022-07-29T19:58:06.131Z,93908.22
2022-07-29T20:03:10.799Z,93908.94
2022-07-29T20:08:12.823Z,93918.16
2022-07-29T20:13:14.985Z,93920.97
2022-07-29T20:18:16.807Z,93927.41
2022-07-29T20:23:19.436Z,93929.09
2022-07-29T20:28:21.481Z,93941.81
2022-07-29T20:33:23.442Z,93948.84
2022-07-29T20:38:25.307Z,93947.50
2022-07-29T20:43:27.855Z,93960.38
2022-07-29T20:48:29.750Z,93965.38
2022-07-29T20:53:34.865Z,93979.28
2022-07-29T20:58:38.444Z,93978.81
2022-07-29T21:03:40.646Z,93991.03
2022-07-29T21:08:42.801Z,93988.06
2022-07-29T21:13:45.734Z,93991.13
2022-07-29T21:18:47.702Z,94017.41
2022-07-29T21:23:49.697Z,94020.31
2022-07-29T21:28:51.655Z,94023.50
2022-07-29T21:33:54.254Z,94016.84
2022-07-29T21:38:56.817Z,94031.38
2022-07-29T21:43:59.540Z,94037.66
2022-07-29T21:49:01.592Z,94044.03
2022-07-29T21:54:04.233Z,94039.16
2022-07-29T21:59:09.801Z,94049.34
2022-07-29T22:04:14.686Z,94047.75
2022-07-29T22:09:16.727Z,94042.91
2022-07-29T22:14:18.829Z,94060.47
2022-07-29T22:19:20.847Z,94062.84
2022-07-29T22:24:22.791Z,94074.22
2022-07-29T22:29:26.907Z,94075.59
2022-07-29T22:34:31.773Z,94074.88
2022-07-29T22:39:40.308Z,94083.78
2022-07-29T22:44:42.390Z,94095.19
2022-07-29T22:49:44.368Z,94110.34
2022-07-29T22:54:46.359Z,94122.88
2022-07-29T22:59:48.297Z,94118.56
2022-07-29T23:04:50.275Z,94119.66
2022-07-29T23:09:52.153Z,94126.06
2022-07-29T23:14:54.024Z,94131.91
2022-07-29T23:19:55.900Z,94147.59
2022-07-29T23:24:58.169Z,94151.72
2022-07-29T23:30:00.125Z,94150.63
2022-07-29T23:35:02.205Z,94158.66
2022-07-29T23:40:05.594Z,94155.94
2022-07-29T23:45:08.318Z,94158.50
2022-07-29T23:50:14.055Z,94165.00
2022-07-29T23:55:36.579Z,94159.22
